Time;durP1;ratioP1;P1;durP2;ratioP2;P2;SDS_P1;SDS_P2;PMS_P1;PMS_P2;Temp;Humidity;BMP_temperature;BMP_pressure;BME280_temperature;BME280_humidity;BME280_pressure;Samples;Min_cycle;Max_cycle;Signal;HPM_P1;HPM_P2
2023/08/16 00:04:42;;;;;;;8.80;8.00;;;;;;;;;;5022132;28;20441;-77
2023/08/16 00:07:08;;;;;;;9.00;8.40;;;;;;;;;;5016959;28;20432;-77
2023/08/16 00:09:34;;;;;;;9.23;8.60;;;;;;;;;;5021374;28;20450;-77
2023/08/16 00:12:00;;;;;;;9.00;8.17;;;;;;;;;;5025351;28;20485;-77
2023/08/16 00:14:26;;;;;;;8.13;7.63;;;;;;;;;;5016054;28;20439;-76
2023/08/16 00:16:52;;;;;;;9.17;8.27;;;;;;;;;;5014036;28;20427;-77
2023/08/16 00:19:18;;;;;;;8.20;7.60;;;;;;;;;;5023161;28;20417;-76
2023/08/16 00:21:44;;;;;;;8.57;7.97;;;;;;;;;;5008144;28;20513;-76
2023/08/16 00:24:10;;;;;;;9.73;9.20;;;;;;;;;;5025162;28;20438;-76
2023/08/16 00:26:36;;;;;;;9.80;8.90;;;;;;;;;;5018586;28;20611;-76
2023/08/16 00:29:03;;;;;;;8.90;8.20;;;;;;;;;;5023641;28;20975;-76
2023/08/16 00:31:29;;;;;;;9.50;8.90;;;;;;;;;;5013703;28;20455;-76
2023/08/16 00:33:55;;;;;;;8.83;8.33;;;;;;;;;;5017147;28;20430;-77
2023/08/16 00:36:22;;;;;;;8.27;7.73;;;;;;;;;;5016179;28;20423;-76
2023/08/16 00:42:13;;;;;;;8.27;7.47;;;;;;;;;;5013864;28;20985;-76
2023/08/16 00:47:44;;;;;;;8.03;7.47;;;;;;;;;;5019147;28;20529;-77
2023/08/16 00:50:10;;;;;;;8.50;7.90;;;;;;;;;;5022675;28;20439;-77
2023/08/16 00:52:36;;;;;;;8.10;7.77;;;;;;;;;;5013337;28;20521;-75
2023/08/16 00:55:02;;;;;;;8.43;7.83;;;;;;;;;;5023221;28;20430;-75
2023/08/16 01:03:39;;;;;;;8.40;8.07;;;;;;;;;;5023038;28;20839;-75
2023/08/16 01:06:05;;;;;;;8.70;7.97;;;;;;;;;;5023705;28;20434;-76
2023/08/16 01:08:32;;;;;;;9.10;8.33;;;;;;;;;;5017016;28;20427;-77
2023/08/16 01:10:58;;;;;;;8.80;8.00;;;;;;;;;;5023682;28;20507;-76
2023/08/16 01:13:50;;;;;;;8.23;7.77;;;;;;;;;;5013819;28;20471;-75
2023/08/16 01:16:18;;;;;;;8.43;8.00;;;;;;;;;;5019905;28;20441;-75
2023/08/16 01:18:44;;;;;;;8.90;8.20;;;;;;;;;;5018532;28;20478;-76
2023/08/16 01:21:12;;;;;;;9.03;8.40;;;;;;;;;;5017308;28;20661;-75
2023/08/16 01:23:57;;;;;;;9.10;8.47;;;;;;;;;;5023174;28;20419;-76
2023/08/16 01:26:28;;;;;;;9.80;8.97;;;;;;;;;;5014898;28;20782;-76
2023/08/16 01:28:55;;;;;;;8.87;8.27;;;;;;;;;;5023297;28;20454;-76
2023/08/16 01:31:21;;;;;;;9.10;8.20;;;;;;;;;;5002164;28;20461;-76
2023/08/16 01:33:47;;;;;;;8.00;7.70;;;;;;;;;;5016545;28;20789;-76
2023/08/16 01:36:13;;;;;;;10.30;9.67;;;;;;;;;;5008469;28;20458;-76
2023/08/16 01:38:39;;;;;;;10.40;9.40;;;;;;;;;;5022321;28;20508;-77
2023/08/16 01:41:06;;;;;;;9.20;8.57;;;;;;;;;;5023280;28;20663;-75
2023/08/16 01:43:32;;;;;;;8.97;8.17;;;;;;;;;;5015493;28;20439;-76
2023/08/16 01:45:59;;;;;;;8.60;8.17;;;;;;;;;;5016477;28;20451;-75
2023/08/16 01:48:26;;;;;;;10.00;9.27;;;;;;;;;;5011185;28;20503;-76
2023/08/16 01:50:52;;;;;;;10.07;9.27;;;;;;;;;;5010718;28;20427;-75
2023/08/16 02:02:28;;;;;;;9.13;8.53;;;;;;;;;;5022271;28;20413;-75
2023/08/16 02:07:58;;;;;;;10.20;9.40;;;;;;;;;;5018479;28;20501;-77
2023/08/16 02:10:24;;;;;;;11.13;10.40;;;;;;;;;;5020375;28;20406;-75
2023/08/16 02:16:01;;;;;;;10.83;10.13;;;;;;;;;;5023935;28;20421;-75
2023/08/16 02:18:28;;;;;;;10.80;10.03;;;;;;;;;;5016007;28;20451;-76
2023/08/16 02:20:54;;;;;;;11.30;10.30;;;;;;;;;;5022998;28;20708;-76
2023/08/16 02:23:20;;;;;;;10.37;9.77;;;;;;;;;;5012320;28;20467;-77
2023/08/16 02:25:46;;;;;;;9.87;9.27;;;;;;;;;;5022451;28;21007;-76
2023/08/16 02:28:12;;;;;;;11.63;10.53;;;;;;;;;;5013831;28;20479;-77
2023/08/16 02:30:38;;;;;;;12.30;11.13;;;;;;;;;;5031775;28;20916;-76
2023/08/16 02:33:04;;;;;;;9.80;9.20;;;;;;;;;;5015328;28;20473;-76
2023/08/16 02:35:31;;;;;;;10.50;9.70;;;;;;;;;;5021716;28;20907;-77
2023/08/16 02:37:57;;;;;;;11.53;9.70;;;;;;;;;;5018026;28;20438;-76
2023/08/16 02:40:23;;;;;;;11.63;10.83;;;;;;;;;;5019379;28;20430;-77
2023/08/16 02:42:50;;;;;;;9.53;9.00;;;;;;;;;;5021698;28;20438;-77
2023/08/16 02:45:16;;;;;;;10.83;9.90;;;;;;;;;;5021739;28;20462;-76
2023/08/16 02:47:43;;;;;;;10.60;9.90;;;;;;;;;;5018126;28;21131;-77
2023/08/16 02:50:09;;;;;;;10.10;9.50;;;;;;;;;;5015076;28;20822;-77
2023/08/16 02:52:35;;;;;;;10.20;9.43;;;;;;;;;;5012156;28;20464;-77
2023/08/16 02:55:01;;;;;;;10.40;9.70;;;;;;;;;;5019393;28;20473;-77
2023/08/16 02:57:27;;;;;;;11.70;10.73;;;;;;;;;;5021093;28;20426;-77
2023/08/16 02:59:53;;;;;;;10.70;9.80;;;;;;;;;;5020913;28;20794;-77
2023/08/16 03:02:19;;;;;;;10.27;9.50;;;;;;;;;;5018615;28;20431;-77
2023/08/16 03:04:45;;;;;;;10.53;9.63;;;;;;;;;;5019828;28;20418;-76
2023/08/16 03:07:11;;;;;;;9.77;8.80;;;;;;;;;;5018619;28;20427;-76
2023/08/16 03:09:38;;;;;;;10.83;9.93;;;;;;;;;;5021177;28;20953;-76
2023/08/16 03:12:05;;;;;;;10.43;9.83;;;;;;;;;;5022735;28;20478;-77
2023/08/16 03:14:31;;;;;;;11.30;10.53;;;;;;;;;;5013419;28;20508;-77
2023/08/16 03:17:00;;;;;;;11.63;10.50;;;;;;;;;;5023444;28;20410;-77
2023/08/16 03:19:26;;;;;;;10.97;10.37;;;;;;;;;;5022736;28;20945;-74
2023/08/16 03:21:53;;;;;;;11.17;10.43;;;;;;;;;;5024790;28;20435;-75
2023/08/16 03:24:19;;;;;;;11.33;10.33;;;;;;;;;;5024751;28;20430;-76
2023/08/16 03:26:45;;;;;;;11.00;10.30;;;;;;;;;;5025035;28;20480;-76
2023/08/16 03:29:11;;;;;;;10.83;10.03;;;;;;;;;;5024599;28;20454;-76
2023/08/16 03:31:37;;;;;;;10.37;9.30;;;;;;;;;;5018815;28;20502;-77
2023/08/16 03:34:03;;;;;;;10.20;9.20;;;;;;;;;;5006028;28;20462;-76
2023/08/16 03:36:29;;;;;;;9.90;9.20;;;;;;;;;;5024489;28;20780;-77
2023/08/16 03:38:55;;;;;;;9.73;9.20;;;;;;;;;;5024682;28;20451;-75
2023/08/16 03:50:32;;;;;;;10.43;8.53;;;;;;;;;;5017364;28;20446;-77
2023/08/16 03:52:58;;;;;;;8.47;7.77;;;;;;;;;;5026018;28;20458;-76
2023/08/16 03:55:24;;;;;;;9.13;8.43;;;;;;;;;;5026048;28;20429;-75
2023/08/16 03:57:50;;;;;;;9.47;8.50;;;;;;;;;;5022789;28;20426;-75
2023/08/16 04:00:16;;;;;;;11.30;10.37;;;;;;;;;;5023352;28;20434;-75
2023/08/16 04:02:42;;;;;;;11.43;10.77;;;;;;;;;;5024380;28;20434;-75
2023/08/16 04:11:16;;;;;;;10.77;9.97;;;;;;;;;;5023534;28;20437;-77
2023/08/16 04:13:42;;;;;;;10.33;9.63;;;;;;;;;;5022645;28;20466;-77
2023/08/16 04:16:08;;;;;;;11.00;10.30;;;;;;;;;;5016100;28;20485;-77
2023/08/16 04:18:34;;;;;;;10.30;9.50;;;;;;;;;;5018653;28;20572;-77
2023/08/16 04:24:04;;;;;;;10.47;9.67;;;;;;;;;;5016009;28;20457;-76
2023/08/16 04:26:31;;;;;;;10.00;9.37;;;;;;;;;;5022357;28;20509;-76
2023/08/16 04:28:57;;;;;;;10.10;9.47;;;;;;;;;;5008490;28;20486;-75
2023/08/16 04:31:23;;;;;;;10.50;9.50;;;;;;;;;;5019348;28;20426;-76
2023/08/16 04:33:49;;;;;;;10.53;9.77;;;;;;;;;;5019415;28;20446;-75
2023/08/16 04:36:15;;;;;;;8.70;8.10;;;;;;;;;;5022299;28;20951;-75
2023/08/16 04:38:41;;;;;;;10.17;9.47;;;;;;;;;;5019556;28;21111;-76
2023/08/16 04:41:07;;;;;;;10.37;9.47;;;;;;;;;;5022423;28;20442;-76
2023/08/16 04:49:41;;;;;;;11.60;10.70;;;;;;;;;;5019979;28;20433;-76
2023/08/16 04:52:07;;;;;;;12.43;10.23;;;;;;;;;;5022462;28;20486;-76
2023/08/16 04:54:33;;;;;;;11.30;10.23;;;;;;;;;;5015750;28;20465;-76
2023/08/16 04:56:59;;;;;;;10.30;9.60;;;;;;;;;;5023330;28;20856;-78
2023/08/16 04:59:25;;;;;;;11.63;10.73;;;;;;;;;;5007891;28;20513;-78
2023/08/16 05:01:51;;;;;;;12.53;11.40;;;;;;;;;;5021677;28;20922;-78
2023/08/16 05:04:17;;;;;;;11.40;10.67;;;;;;;;;;5018360;28;20784;-78
2023/08/16 05:06:43;;;;;;;13.73;12.40;;;;;;;;;;5023079;28;20442;-78
2023/08/16 05:09:10;;;;;;;13.17;12.37;;;;;;;;;;5012586;28;20493;-78
2023/08/16 05:11:35;;;;;;;13.83;12.53;;;;;;;;;;5003721;28;20446;-78
2023/08/16 05:14:02;;;;;;;13.47;12.30;;;;;;;;;;5022508;28;20434;-80
2023/08/16 05:16:28;;;;;;;15.50;13.97;;;;;;;;;;5014361;28;20455;-79
2023/08/16 05:18:57;;;;;;;14.77;13.47;;;;;;;;;;5022319;28;20777;-80
2023/08/16 05:21:23;;;;;;;15.33;13.93;;;;;;;;;;5021502;28;20538;-78
2023/08/16 05:23:49;;;;;;;15.93;14.73;;;;;;;;;;5020812;28;20422;-78
2023/08/16 05:26:15;;;;;;;15.33;14.23;;;;;;;;;;5020895;28;20445;-78
2023/08/16 05:28:41;;;;;;;16.33;14.87;;;;;;;;;;5000389;28;20820;-80
2023/08/16 05:31:10;;;;;;;15.53;14.23;;;;;;;;;;5022469;28;20517;-80
2023/08/16 05:33:37;;;;;;;16.97;15.53;;;;;;;;;;5022225;28;20917;-80
2023/08/16 05:36:04;;;;;;;17.13;15.40;;;;;;;;;;5021833;28;20613;-78
2023/08/16 05:38:30;;;;;;;17.07;15.57;;;;;;;;;;5021914;28;20526;-77
2023/08/16 05:40:56;;;;;;;16.60;15.03;;;;;;;;;;5011839;28;20431;-77
2023/08/16 05:43:22;;;;;;;17.77;16.40;;;;;;;;;;5005586;28;20459;-79
2023/08/16 05:45:48;;;;;;;17.57;15.70;;;;;;;;;;5021543;28;20431;-81
2023/08/16 05:51:33;;;;;;;17.60;15.80;;;;;;;;;;5020144;28;20478;-86
2023/08/16 05:53:59;;;;;;;16.83;15.30;;;;;;;;;;5027311;28;20453;-86
2023/08/16 05:56:25;;;;;;;14.80;13.70;;;;;;;;;;5025352;28;20447;-81
2023/08/16 05:58:51;;;;;;;15.80;14.37;;;;;;;;;;5024799;28;20658;-85
2023/08/16 06:01:17;;;;;;;16.37;14.77;;;;;;;;;;5028379;28;21178;-85
2023/08/16 06:03:43;;;;;;;14.33;13.13;;;;;;;;;;5040907;28;20441;-83
2023/08/16 06:06:09;;;;;;;13.63;12.60;;;;;;;;;;5025053;28;20434;-81
2023/08/16 06:08:35;;;;;;;16.10;14.70;;;;;;;;;;5016647;28;20431;-81
2023/08/16 06:11:02;;;;;;;14.80;13.40;;;;;;;;;;5015979;28;20942;-80
2023/08/16 06:13:28;;;;;;;14.97;13.57;;;;;;;;;;5021663;28;20552;-80
2023/08/16 06:15:54;;;;;;;14.07;13.07;;;;;;;;;;5017881;28;20807;-79
2023/08/16 06:18:20;;;;;;;14.87;13.63;;;;;;;;;;5010476;28;20764;-78
2023/08/16 06:20:46;;;;;;;14.00;12.67;;;;;;;;;;5011036;28;20438;-78
2023/08/16 06:23:12;;;;;;;12.50;11.50;;;;;;;;;;5016782;28;21357;-77
2023/08/16 06:25:38;;;;;;;11.53;10.60;;;;;;;;;;5021708;28;20422;-78
2023/08/16 06:28:05;;;;;;;11.57;10.80;;;;;;;;;;5017787;28;21007;-78
2023/08/16 06:30:31;;;;;;;13.17;12.27;;;;;;;;;;5021789;28;20818;-78
2023/08/16 06:32:57;;;;;;;12.83;11.70;;;;;;;;;;4983478;28;20490;-75
2023/08/16 06:35:23;;;;;;;11.80;11.00;;;;;;;;;;5019652;28;21002;-79
2023/08/16 06:37:49;;;;;;;11.93;11.23;;;;;;;;;;5020610;28;20997;-78
2023/08/16 06:40:15;;;;;;;11.40;10.60;;;;;;;;;;5012787;28;20439;-78
2023/08/16 06:45:45;;;;;;;11.43;10.30;;;;;;;;;;5022451;28;20410;-75
2023/08/16 06:57:22;;;;;;;11.53;10.63;;;;;;;;;;4994691;28;21022;-76
2023/08/16 06:59:48;;;;;;;13.13;12.20;;;;;;;;;;5009606;28;20526;-78
2023/08/16 07:02:14;;;;;;;11.93;11.10;;;;;;;;;;5015834;28;20431;-78
2023/08/16 07:04:44;;;;;;;13.03;12.13;;;;;;;;;;5018589;28;20445;-79
2023/08/16 07:07:10;;;;;;;14.13;13.13;;;;;;;;;;5015583;28;20482;-76
2023/08/16 07:09:36;;;;;;;13.40;12.30;;;;;;;;;;5022333;28;20424;-77
2023/08/16 07:12:02;;;;;;;12.63;11.73;;;;;;;;;;5020700;28;20462;-78
2023/08/16 07:14:28;;;;;;;13.60;12.40;;;;;;;;;;5013755;28;20519;-79
2023/08/16 07:16:55;;;;;;;13.57;12.50;;;;;;;;;;5000371;28;20921;-78
2023/08/16 07:19:21;;;;;;;13.27;12.27;;;;;;;;;;5021266;28;20430;-78
2023/08/16 07:21:48;;;;;;;14.03;12.93;;;;;;;;;;5017327;28;20482;-77
2023/08/16 07:24:14;;;;;;;14.00;12.97;;;;;;;;;;5024512;28;20795;-76
2023/08/16 07:26:40;;;;;;;13.27;12.13;;;;;;;;;;5014011;28;20435;-77
2023/08/16 07:29:07;;;;;;;13.10;12.20;;;;;;;;;;5016638;28;20466;-77
2023/08/16 07:31:33;;;;;;;13.43;12.23;;;;;;;;;;5016271;28;20795;-77
2023/08/16 07:33:59;;;;;;;15.87;12.00;;;;;;;;;;5019076;28;20929;-77
2023/08/16 07:36:27;;;;;;;13.13;12.07;;;;;;;;;;5006034;28;20458;-77
2023/08/16 07:38:53;;;;;;;11.47;10.67;;;;;;;;;;5010662;28;20837;-77
2023/08/16 07:41:19;;;;;;;11.83;11.00;;;;;;;;;;5011384;28;20450;-79
2023/08/16 07:43:45;;;;;;;10.80;10.20;;;;;;;;;;5025285;28;20443;-76
2023/08/16 07:46:11;;;;;;;11.00;9.90;;;;;;;;;;5021953;28;20449;-76
2023/08/16 07:48:37;;;;;;;10.73;9.97;;;;;;;;;;5018017;28;20448;-77
2023/08/16 07:51:03;;;;;;;11.27;10.17;;;;;;;;;;5012127;28;20446;-78
2023/08/16 07:53:29;;;;;;;11.00;10.27;;;;;;;;;;4995911;28;20908;-81
2023/08/16 07:55:56;;;;;;;11.33;10.47;;;;;;;;;;5023372;28;20905;-75
2023/08/16 07:58:22;;;;;;;10.60;10.00;;;;;;;;;;5022763;28;20441;-78
2023/08/16 08:00:52;;;;;;;11.13;10.43;;;;;;;;;;5006520;28;20522;-77
2023/08/16 08:03:18;;;;;;;11.90;11.00;;;;;;;;;;5016601;28;20414;-78
2023/08/16 08:05:44;;;;;;;11.30;10.40;;;;;;;;;;5020302;28;20439;-79
2023/08/16 08:08:11;;;;;;;13.70;12.47;;;;;;;;;;5016792;28;20544;-78
2023/08/16 08:10:37;;;;;;;11.97;11.17;;;;;;;;;;5022604;28;20466;-77
2023/08/16 08:13:03;;;;;;;15.27;13.90;;;;;;;;;;5018408;28;20589;-77
2023/08/16 08:15:30;;;;;;;14.40;13.50;;;;;;;;;;5013678;28;20529;-77
2023/08/16 08:17:56;;;;;;;15.07;13.80;;;;;;;;;;5012900;28;20493;-78
2023/08/16 08:20:22;;;;;;;14.20;13.20;;;;;;;;;;5021778;28;20526;-78
2023/08/16 08:22:48;;;;;;;14.90;13.33;;;;;;;;;;5016764;28;20447;-77
2023/08/16 08:25:14;;;;;;;13.73;12.70;;;;;;;;;;5023555;28;20906;-77
2023/08/16 08:27:40;;;;;;;12.83;11.73;;;;;;;;;;5019480;28;20485;-77
2023/08/16 08:30:07;;;;;;;13.33;12.20;;;;;;;;;;5014580;28;20446;-78
2023/08/16 08:32:34;;;;;;;13.40;12.40;;;;;;;;;;5013579;28;20996;-79
2023/08/16 08:35:00;;;;;;;11.80;10.80;;;;;;;;;;5020840;28;20453;-78
2023/08/16 08:37:26;;;;;;;11.83;11.03;;;;;;;;;;5022026;28;20443;-77
2023/08/16 08:39:52;;;;;;;13.47;12.53;;;;;;;;;;5024421;28;20461;-79
2023/08/16 08:42:18;;;;;;;11.77;10.97;;;;;;;;;;5012991;28;20431;-77
2023/08/16 08:44:44;;;;;;;11.50;10.50;;;;;;;;;;5020985;28;20439;-79
2023/08/16 08:47:10;;;;;;;11.67;10.57;;;;;;;;;;5022731;28;20423;-78
2023/08/16 08:49:36;;;;;;;11.83;10.93;;;;;;;;;;5000833;28;20450;-79
2023/08/16 08:52:04;;;;;;;10.63;9.80;;;;;;;;;;5014002;28;20465;-76
2023/08/16 08:54:30;;;;;;;9.97;9.23;;;;;;;;;;5016798;28;21210;-76
2023/08/16 08:56:59;;;;;;;10.43;9.60;;;;;;;;;;5015869;28;20431;-78
2023/08/16 08:59:25;;;;;;;10.33;9.73;;;;;;;;;;5019004;28;20452;-79
2023/08/16 09:01:54;;;;;;;11.33;10.43;;;;;;;;;;5018022;28;20429;-80
2023/08/16 09:04:21;;;;;;;12.70;11.60;;;;;;;;;;5014668;28;20447;-78
2023/08/16 09:06:48;;;;;;;13.73;12.40;;;;;;;;;;5020353;28;20517;-76
2023/08/16 09:09:14;;;;;;;12.53;11.53;;;;;;;;;;5019914;28;20449;-78
2023/08/16 09:11:42;;;;;;;12.60;11.57;;;;;;;;;;5017689;28;20432;-77
2023/08/16 09:14:09;;;;;;;14.10;12.87;;;;;;;;;;5023319;28;20524;-78
2023/08/16 09:16:35;;;;;;;14.57;13.03;;;;;;;;;;5021862;28;20933;-79
2023/08/16 09:19:04;;;;;;;17.20;15.70;;;;;;;;;;5022025;28;21015;-78
2023/08/16 09:21:31;;;;;;;15.70;14.30;;;;;;;;;;5000182;28;20525;-78
2023/08/16 09:23:58;;;;;;;15.23;13.70;;;;;;;;;;5018725;28;20490;-79
2023/08/16 09:26:24;;;;;;;13.73;12.73;;;;;;;;;;5021700;28;20454;-79
2023/08/16 09:28:59;;;;;;;13.50;12.50;;;;;;;;;;5019954;28;20457;-78
2023/08/16 09:31:29;;;;;;;14.73;13.27;;;;;;;;;;5021029;28;20808;-80
2023/08/16 09:37:02;;;;;;;11.90;10.90;;;;;;;;;;5005247;28;20433;-80
2023/08/16 09:42:35;;;;;;;11.17;10.30;;;;;;;;;;5003183;28;20495;-78
2023/08/16 09:45:01;;;;;;;10.23;9.43;;;;;;;;;;5011075;28;20551;-80
2023/08/16 09:47:31;;;;;;;11.20;10.23;;;;;;;;;;5025576;28;20426;-81
2023/08/16 09:50:00;;;;;;;11.40;10.33;;;;;;;;;;5025312;28;20427;-81
2023/08/16 09:52:28;;;;;;;8.60;8.10;;;;;;;;;;5021161;28;21057;-78
2023/08/16 09:54:55;;;;;;;8.90;8.40;;;;;;;;;;5015604;28;20953;-80
2023/08/16 09:57:22;;;;;;;9.07;8.37;;;;;;;;;;5006077;28;20422;-79
2023/08/16 09:59:51;;;;;;;10.50;9.80;;;;;;;;;;5009222;28;21195;-79
2023/08/16 10:02:17;;;;;;;15.10;13.80;;;;;;;;;;5002659;28;20972;-80
2023/08/16 10:04:43;;;;;;;14.33;13.13;;;;;;;;;;5012771;28;20447;-78
2023/08/16 10:07:09;;;;;;;14.67;13.40;;;;;;;;;;5001664;28;20443;-80
2023/08/16 10:09:35;;;;;;;16.87;15.57;;;;;;;;;;5010814;28;20449;-81
2023/08/16 10:12:06;;;;;;;16.80;15.30;;;;;;;;;;5021861;28;20492;-78
2023/08/16 10:14:33;;;;;;;17.27;15.87;;;;;;;;;;5014846;28;20923;-77
2023/08/16 10:17:03;;;;;;;17.50;15.90;;;;;;;;;;5013673;28;20421;-79
2023/08/16 10:31:52;;;;;;;16.53;15.23;;;;;;;;;;4978556;28;20922;-79
2023/08/16 10:34:19;;;;;;;17.60;16.00;;;;;;;;;;4979486;28;20506;-80
2023/08/16 10:36:46;;;;;;;18.43;16.83;;;;;;;;;;4979193;28;20452;-77
2023/08/16 10:39:21;;;;;;;20.87;18.90;;;;;;;;;;4974358;28;20429;-77
2023/08/16 10:41:47;;;;;;;20.73;17.23;;;;;;;;;;4969218;28;20447;-79
2023/08/16 10:44:22;;;;;;;19.63;17.80;;;;;;;;;;4984851;28;20743;-79
2023/08/16 10:46:49;;;;;;;19.00;17.40;;;;;;;;;;4969832;28;21254;-80
2023/08/16 10:49:15;;;;;;;17.27;15.63;;;;;;;;;;4984157;28;20439;-78
2023/08/16 10:51:44;;;;;;;17.27;15.73;;;;;;;;;;4970301;28;20479;-80
2023/08/16 10:54:11;;;;;;;17.73;16.33;;;;;;;;;;4982413;28;21051;-80
2023/08/16 10:56:43;;;;;;;16.70;15.30;;;;;;;;;;4978182;28;21151;-81
2023/08/16 10:59:10;;;;;;;17.07;15.77;;;;;;;;;;4970115;28;20544;-79
2023/08/16 11:01:36;;;;;;;18.13;16.83;;;;;;;;;;4981439;28;20421;-78
2023/08/16 11:04:02;;;;;;;19.73;17.83;;;;;;;;;;4978120;28;20979;-79
2023/08/16 11:06:29;;;;;;;19.93;18.33;;;;;;;;;;4978835;28;20439;-78
2023/08/16 11:08:55;;;;;;;22.17;18.77;;;;;;;;;;4985191;28;20424;-79
2023/08/16 11:14:46;;;;;;;24.07;22.07;;;;;;;;;;4974986;28;20471;-79
2023/08/16 11:17:16;;;;;;;21.20;19.30;;;;;;;;;;4978470;28;20468;-79
2023/08/16 11:19:42;;;;;;;21.43;19.63;;;;;;;;;;4983819;28;20408;-78
2023/08/16 11:31:46;;;;;;;20.53;19.07;;;;;;;;;;4999065;28;20594;-81
2023/08/16 11:34:32;;;;;;;23.47;21.37;;;;;;;;;;5011007;28;20536;-81
2023/08/16 11:36:59;;;;;;;21.13;19.27;;;;;;;;;;5013913;28;20977;-78
2023/08/16 14:21:53;;;;;;;10.60;9.77;;;;;;;;;;4991635;28;20474;-77
2023/08/16 14:24:19;;;;;;;11.90;11.07;;;;;;;;;;4977979;28;20450;-78
2023/08/16 14:26:49;;;;;;;9.67;9.07;;;;;;;;;;5000695;28;21161;-78
2023/08/16 14:29:16;;;;;;;10.27;9.30;;;;;;;;;;5004632;28;20481;-78
2023/08/16 14:31:42;;;;;;;8.13;7.63;;;;;;;;;;4990019;28;20871;-77
2023/08/16 14:34:08;;;;;;;7.30;6.90;;;;;;;;;;5003422;28;20467;-76
2023/08/16 14:36:34;;;;;;;8.33;7.80;;;;;;;;;;4996791;28;20434;-78
2023/08/16 14:39:00;;;;;;;9.77;9.17;;;;;;;;;;4988192;28;20539;-78
2023/08/16 14:41:26;;;;;;;8.43;7.80;;;;;;;;;;4993308;28;20578;-78
2023/08/16 14:43:52;;;;;;;7.80;7.40;;;;;;;;;;4984573;28;20408;-74
2023/08/16 14:46:18;;;;;;;7.40;7.00;;;;;;;;;;5000486;28;20435;-76
2023/08/16 14:48:44;;;;;;;7.37;7.00;;;;;;;;;;5001506;28;20517;-74
2023/08/16 14:51:13;;;;;;;7.17;6.73;;;;;;;;;;4992895;28;20428;-75
2023/08/16 14:53:39;;;;;;;8.83;8.27;;;;;;;;;;4990428;28;20484;-75
2023/08/16 14:56:07;;;;;;;7.60;7.20;;;;;;;;;;4985293;28;20447;-74
2023/08/16 14:58:33;;;;;;;8.00;7.20;;;;;;;;;;4995208;28;20505;-76
2023/08/16 15:00:59;;;;;;;7.23;7.00;;;;;;;;;;4991030;28;20494;-75
2023/08/16 15:03:26;;;;;;;7.70;7.40;;;;;;;;;;4994572;28;20433;-75
2023/08/16 15:05:53;;;;;;;7.93;7.33;;;;;;;;;;4973884;28;21127;-75
2023/08/16 15:08:19;;;;;;;7.73;7.37;;;;;;;;;;4995536;28;20424;-74
2023/08/16 15:10:48;;;;;;;7.20;6.73;;;;;;;;;;4972704;28;20420;-73
2023/08/16 15:13:14;;;;;;;7.97;7.47;;;;;;;;;;4988946;28;20494;-74
2023/08/16 15:15:40;;;;;;;7.73;7.40;;;;;;;;;;4998986;28;20997;-75
2023/08/16 15:18:07;;;;;;;7.00;6.63;;;;;;;;;;5004486;28;20526;-75
2023/08/16 15:20:33;;;;;;;8.67;8.13;;;;;;;;;;4986944;28;20439;-74
2023/08/16 15:23:04;;;;;;;8.07;7.77;;;;;;;;;;5017109;28;20468;-75
2023/08/16 15:25:31;;;;;;;8.43;7.90;;;;;;;;;;5019414;28;20449;-74
2023/08/16 15:28:00;;;;;;;8.90;8.50;;;;;;;;;;5020892;28;20508;-76
2023/08/16 16:15:51;;;;;;;5.30;5.10;;;;;;;;;;5053818;28;20974;-79
